sensor_id;sensor_type;location;lat;lon;timestamp;P1;durP1;ratioP1;P2;durP2;ratioP2
23322;SDS011;11833;52.554;13.554;2023-09-30T00:02:31;1.77;;;0.60;;
23322;SDS011;11833;52.554;13.554;2023-09-30T00:04:57;0.63;;;0.60;;
23322;SDS011;11833;52.554;13.554;2023-09-30T00:07:23;1.15;;;0.50;;
23322;SDS011;11833;52.554;13.554;2023-09-30T00:09:49;2.00;;;0.93;;
23322;SDS011;11833;52.554;13.554;2023-09-30T00:12:16;2.58;;;1.00;;
23322;SDS011;11833;52.554;13.554;2023-09-30T00:14:43;3.92;;;0.90;;
23322;SDS011;11833;52.554;13.554;2023-09-30T00:17:08;2.58;;;0.70;;
23322;SDS011;11833;52.554;13.554;2023-09-30T00:19:34;2.60;;;0.60;;
23322;SDS011;11833;52.554;13.554;2023-09-30T00:22:00;0.88;;;0.43;;
23322;SDS011;11833;52.554;13.554;2023-09-30T00:24:26;3.38;;;0.77;;
23322;SDS011;11833;52.554;13.554;2023-09-30T00:26:51;2.38;;;1.08;;
23322;SDS011;11833;52.554;13.554;2023-09-30T00:29:17;3.63;;;0.90;;
23322;SDS011;11833;52.554;13.554;2023-09-30T00:31:43;5.30;;;1.33;;
23322;SDS011;11833;52.554;13.554;2023-09-30T00:34:09;2.95;;;0.65;;
23322;SDS011;11833;52.554;13.554;2023-09-30T00:36:35;3.63;;;0.70;;
23322;SDS011;11833;52.554;13.554;2023-09-30T00:39:01;4.28;;;0.93;;
23322;SDS011;11833;52.554;13.554;2023-09-30T00:41:27;2.60;;;0.80;;
23322;SDS011;11833;52.554;13.554;2023-09-30T00:43:52;4.40;;;1.05;;
23322;SDS011;11833;52.554;13.554;2023-09-30T00:48:52;3.42;;;1.00;;
23322;SDS011;11833;52.554;13.554;2023-09-30T00:51:19;4.90;;;1.13;;
23322;SDS011;11833;52.554;13.554;2023-09-30T00:53:46;2.55;;;1.20;;
23322;SDS011;11833;52.554;13.554;2023-09-30T00:56:12;3.88;;;1.50;;
23322;SDS011;11833;52.554;13.554;2023-09-30T00:58:38;6.15;;;1.35;;
23322;SDS011;11833;52.554;13.554;2023-09-30T01:01:05;3.30;;;1.35;;
23322;SDS011;11833;52.554;13.554;2023-09-30T01:03:31;4.38;;;1.45;;
23322;SDS011;11833;52.554;13.554;2023-09-30T01:05:57;11.00;;;2.00;;
23322;SDS011;11833;52.554;13.554;2023-09-30T01:08:23;2.05;;;1.17;;
23322;SDS011;11833;52.554;13.554;2023-09-30T01:10:49;8.43;;;1.60;;
23322;SDS011;11833;52.554;13.554;2023-09-30T01:13:15;4.45;;;1.45;;
23322;SDS011;11833;52.554;13.554;2023-09-30T01:15:41;10.45;;;1.83;;
23322;SDS011;11833;52.554;13.554;2023-09-30T01:18:07;8.02;;;2.15;;
23322;SDS011;11833;52.554;13.554;2023-09-30T01:20:33;9.02;;;1.50;;
23322;SDS011;11833;52.554;13.554;2023-09-30T01:22:58;5.53;;;1.80;;
23322;SDS011;11833;52.554;13.554;2023-09-30T01:25:25;5.97;;;1.58;;
23322;SDS011;11833;52.554;13.554;2023-09-30T01:27:51;9.13;;;2.47;;
23322;SDS011;11833;52.554;13.554;2023-09-30T01:30:17;9.60;;;1.92;;
23322;SDS011;11833;52.554;13.554;2023-09-30T01:32:43;6.88;;;1.60;;
23322;SDS011;11833;52.554;13.554;2023-09-30T01:35:09;5.97;;;2.13;;
23322;SDS011;11833;52.554;13.554;2023-09-30T01:37:35;6.70;;;2.22;;
23322;SDS011;11833;52.554;13.554;2023-09-30T01:40:01;6.10;;;2.08;;
23322;SDS011;11833;52.554;13.554;2023-09-30T01:42:33;10.25;;;2.95;;
23322;SDS011;11833;52.554;13.554;2023-09-30T01:44:59;9.82;;;2.75;;
23322;SDS011;11833;52.554;13.554;2023-09-30T01:47:24;9.63;;;2.35;;
23322;SDS011;11833;52.554;13.554;2023-09-30T01:49:50;9.95;;;2.10;;
23322;SDS011;11833;52.554;13.554;2023-09-30T01:52:16;15.50;;;2.38;;
23322;SDS011;11833;52.554;13.554;2023-09-30T01:54:42;11.93;;;2.53;;
23322;SDS011;11833;52.554;13.554;2023-09-30T01:57:07;10.65;;;2.38;;
23322;SDS011;11833;52.554;13.554;2023-09-30T01:59:33;11.77;;;3.83;;
23322;SDS011;11833;52.554;13.554;2023-09-30T02:01:59;8.95;;;2.38;;
23322;SDS011;11833;52.554;13.554;2023-09-30T02:04:25;7.78;;;2.22;;
23322;SDS011;11833;52.554;13.554;2023-09-30T02:06:51;12.80;;;2.40;;
23322;SDS011;11833;52.554;13.554;2023-09-30T02:09:17;13.68;;;2.53;;
23322;SDS011;11833;52.554;13.554;2023-09-30T02:11:42;8.25;;;2.22;;
23322;SDS011;11833;52.554;13.554;2023-09-30T02:14:09;8.73;;;2.72;;
23322;SDS011;11833;52.554;13.554;2023-09-30T02:16:37;8.02;;;2.28;;
23322;SDS011;11833;52.554;13.554;2023-09-30T02:19:04;8.73;;;2.17;;
23322;SDS011;11833;52.554;13.554;2023-09-30T02:21:29;8.18;;;2.50;;
23322;SDS011;11833;52.554;13.554;2023-09-30T02:23:55;6.90;;;2.40;;
23322;SDS011;11833;52.554;13.554;2023-09-30T02:26:21;8.02;;;3.03;;
23322;SDS011;11833;52.554;13.554;2023-09-30T02:28:50;7.22;;;2.63;;
23322;SDS011;11833;52.554;13.554;2023-09-30T02:31:17;7.53;;;2.40;;
23322;SDS011;11833;52.554;13.554;2023-09-30T02:33:44;8.02;;;2.25;;
23322;SDS011;11833;52.554;13.554;2023-09-30T02:36:09;5.82;;;2.10;;
23322;SDS011;11833;52.554;13.554;2023-09-30T02:38:35;9.85;;;2.80;;
23322;SDS011;11833;52.554;13.554;2023-09-30T02:41:02;7.45;;;2.40;;
23322;SDS011;11833;52.554;13.554;2023-09-30T02:43:28;8.25;;;2.08;;
23322;SDS011;11833;52.554;13.554;2023-09-30T02:45:54;9.70;;;2.28;;
23322;SDS011;11833;52.554;13.554;2023-09-30T02:48:20;8.68;;;2.03;;
23322;SDS011;11833;52.554;13.554;2023-09-30T02:50:46;10.82;;;2.25;;
23322;SDS011;11833;52.554;13.554;2023-09-30T02:53:12;7.45;;;2.42;;
23322;SDS011;11833;52.554;13.554;2023-09-30T02:55:38;8.07;;;2.40;;
23322;SDS011;11833;52.554;13.554;2023-09-30T02:58:06;7.50;;;2.30;;
23322;SDS011;11833;52.554;13.554;2023-09-30T03:00:33;9.88;;;2.92;;
23322;SDS011;11833;52.554;13.554;2023-09-30T03:03:01;8.75;;;2.50;;
23322;SDS011;11833;52.554;13.554;2023-09-30T03:05:27;7.78;;;2.00;;
23322;SDS011;11833;52.554;13.554;2023-09-30T03:07:55;11.70;;;2.38;;
23322;SDS011;11833;52.554;13.554;2023-09-30T03:10:21;8.18;;;2.35;;
23322;SDS011;11833;52.554;13.554;2023-09-30T03:12:52;10.18;;;2.20;;
23322;SDS011;11833;52.554;13.554;2023-09-30T03:15:21;10.70;;;2.88;;
23322;SDS011;11833;52.554;13.554;2023-09-30T03:17:48;8.13;;;2.17;;
23322;SDS011;11833;52.554;13.554;2023-09-30T03:20:14;11.55;;;2.22;;
23322;SDS011;11833;52.554;13.554;2023-09-30T03:22:44;10.30;;;2.55;;
23322;SDS011;11833;52.554;13.554;2023-09-30T03:25:12;8.20;;;2.40;;
23322;SDS011;11833;52.554;13.554;2023-09-30T03:27:41;9.32;;;2.10;;
23322;SDS011;11833;52.554;13.554;2023-09-30T03:30:07;5.72;;;2.20;;
23322;SDS011;11833;52.554;13.554;2023-09-30T03:32:34;6.03;;;2.13;;
23322;SDS011;11833;52.554;13.554;2023-09-30T03:35:06;11.95;;;2.78;;
23322;SDS011;11833;52.554;13.554;2023-09-30T03:37:35;10.93;;;2.47;;
23322;SDS011;11833;52.554;13.554;2023-09-30T03:40:05;15.18;;;2.97;;
23322;SDS011;11833;52.554;13.554;2023-09-30T03:42:39;9.32;;;2.50;;
23322;SDS011;11833;52.554;13.554;2023-09-30T03:45:07;6.70;;;2.25;;
23322;SDS011;11833;52.554;13.554;2023-09-30T03:47:35;5.85;;;1.88;;
23322;SDS011;11833;52.554;13.554;2023-09-30T03:50:02;11.15;;;2.47;;
23322;SDS011;11833;52.554;13.554;2023-09-30T03:52:30;12.23;;;2.47;;
23322;SDS011;11833;52.554;13.554;2023-09-30T03:55:01;10.63;;;2.60;;
23322;SDS011;11833;52.554;13.554;2023-09-30T03:57:31;9.25;;;1.98;;
23322;SDS011;11833;52.554;13.554;2023-09-30T03:59:58;9.73;;;2.67;;
23322;SDS011;11833;52.554;13.554;2023-09-30T04:02:25;12.48;;;2.45;;
23322;SDS011;11833;52.554;13.554;2023-09-30T04:04:52;10.15;;;2.50;;
23322;SDS011;11833;52.554;13.554;2023-09-30T04:07:20;10.27;;;2.08;;
23322;SDS011;11833;52.554;13.554;2023-09-30T04:09:46;8.65;;;2.30;;
23322;SDS011;11833;52.554;13.554;2023-09-30T04:12:12;9.60;;;2.05;;
23322;SDS011;11833;52.554;13.554;2023-09-30T04:14:38;7.38;;;2.08;;
23322;SDS011;11833;52.554;13.554;2023-09-30T04:17:04;12.75;;;2.45;;
23322;SDS011;11833;52.554;13.554;2023-09-30T04:19:30;10.95;;;2.40;;
23322;SDS011;11833;52.554;13.554;2023-09-30T04:21:56;15.90;;;2.97;;
23322;SDS011;11833;52.554;13.554;2023-09-30T04:24:22;9.90;;;2.10;;
23322;SDS011;11833;52.554;13.554;2023-09-30T04:26:48;8.57;;;2.47;;
23322;SDS011;11833;52.554;13.554;2023-09-30T04:29:15;11.65;;;2.30;;
23322;SDS011;11833;52.554;13.554;2023-09-30T04:31:41;12.93;;;3.05;;
23322;SDS011;11833;52.554;13.554;2023-09-30T04:34:07;7.43;;;2.22;;
23322;SDS011;11833;52.554;13.554;2023-09-30T04:36:33;10.27;;;2.88;;
23322;SDS011;11833;52.554;13.554;2023-09-30T04:39:00;10.45;;;2.67;;
23322;SDS011;11833;52.554;13.554;2023-09-30T04:41:26;10.57;;;2.30;;
23322;SDS011;11833;52.554;13.554;2023-09-30T04:43:52;7.95;;;2.40;;
23322;SDS011;11833;52.554;13.554;2023-09-30T04:46:17;11.95;;;2.38;;
23322;SDS011;11833;52.554;13.554;2023-09-30T04:48:48;9.00;;;3.55;;
23322;SDS011;11833;52.554;13.554;2023-09-30T04:51:13;10.20;;;2.17;;
23322;SDS011;11833;52.554;13.554;2023-09-30T04:53:42;12.05;;;3.10;;
23322;SDS011;11833;52.554;13.554;2023-09-30T04:56:10;11.25;;;3.05;;
23322;SDS011;11833;52.554;13.554;2023-09-30T04:58:35;11.95;;;3.00;;
23322;SDS011;11833;52.554;13.554;2023-09-30T05:01:01;7.47;;;2.45;;
23322;SDS011;11833;52.554;13.554;2023-09-30T05:03:27;7.00;;;2.33;;
23322;SDS011;11833;52.554;13.554;2023-09-30T05:05:52;9.80;;;2.67;;
23322;SDS011;11833;52.554;13.554;2023-09-30T05:08:22;10.13;;;2.80;;
23322;SDS011;11833;52.554;13.554;2023-09-30T05:10:49;12.60;;;2.95;;
23322;SDS011;11833;52.554;13.554;2023-09-30T05:13:15;12.02;;;2.83;;
23322;SDS011;11833;52.554;13.554;2023-09-30T05:15:41;7.95;;;2.60;;
23322;SDS011;11833;52.554;13.554;2023-09-30T05:18:07;10.35;;;2.85;;
23322;SDS011;11833;52.554;13.554;2023-09-30T05:20:34;7.35;;;2.30;;
23322;SDS011;11833;52.554;13.554;2023-09-30T05:23:01;11.45;;;2.30;;
23322;SDS011;11833;52.554;13.554;2023-09-30T05:25:28;14.68;;;3.30;;
23322;SDS011;11833;52.554;13.554;2023-09-30T05:27:53;10.63;;;2.67;;
23322;SDS011;11833;52.554;13.554;2023-09-30T05:30:20;14.65;;;3.13;;
23322;SDS011;11833;52.554;13.554;2023-09-30T05:32:46;11.60;;;2.53;;
23322;SDS011;11833;52.554;13.554;2023-09-30T05:35:12;6.80;;;2.65;;
23322;SDS011;11833;52.554;13.554;2023-09-30T05:37:39;6.85;;;2.58;;
23322;SDS011;11833;52.554;13.554;2023-09-30T05:40:06;7.78;;;2.22;;
23322;SDS011;11833;52.554;13.554;2023-09-30T05:42:42;8.80;;;2.47;;
23322;SDS011;11833;52.554;13.554;2023-09-30T05:45:10;11.20;;;2.53;;
23322;SDS011;11833;52.554;13.554;2023-09-30T05:47:40;11.43;;;3.00;;
23322;SDS011;11833;52.554;13.554;2023-09-30T05:50:07;12.10;;;2.70;;
23322;SDS011;11833;52.554;13.554;2023-09-30T05:52:34;8.85;;;2.88;;
23322;SDS011;11833;52.554;13.554;2023-09-30T05:55:01;5.57;;;2.17;;
23322;SDS011;11833;52.554;13.554;2023-09-30T05:57:28;6.65;;;2.60;;
23322;SDS011;11833;52.554;13.554;2023-09-30T05:59:53;9.00;;;2.42;;
23322;SDS011;11833;52.554;13.554;2023-09-30T06:02:19;7.78;;;3.47;;
23322;SDS011;11833;52.554;13.554;2023-09-30T06:04:45;10.77;;;2.85;;
23322;SDS011;11833;52.554;13.554;2023-09-30T06:07:11;9.25;;;2.75;;
23322;SDS011;11833;52.554;13.554;2023-09-30T06:09:37;9.32;;;2.15;;
23322;SDS011;11833;52.554;13.554;2023-09-30T06:12:03;9.18;;;2.50;;
23322;SDS011;11833;52.554;13.554;2023-09-30T06:14:32;9.05;;;2.72;;
23322;SDS011;11833;52.554;13.554;2023-09-30T06:16:58;10.02;;;2.80;;
23322;SDS011;11833;52.554;13.554;2023-09-30T06:19:24;7.97;;;2.28;;
23322;SDS011;11833;52.554;13.554;2023-09-30T06:21:51;7.43;;;2.53;;
23322;SDS011;11833;52.554;13.554;2023-09-30T06:24:17;11.68;;;3.20;;
23322;SDS011;11833;52.554;13.554;2023-09-30T06:26:45;9.43;;;2.40;;
23322;SDS011;11833;52.554;13.554;2023-09-30T06:29:13;8.88;;;2.65;;
23322;SDS011;11833;52.554;13.554;2023-09-30T06:31:39;9.93;;;2.50;;
23322;SDS011;11833;52.554;13.554;2023-09-30T06:34:05;8.60;;;2.80;;
23322;SDS011;11833;52.554;13.554;2023-09-30T06:36:32;9.73;;;2.67;;
23322;SDS011;11833;52.554;13.554;2023-09-30T06:38:58;9.65;;;2.95;;
23322;SDS011;11833;52.554;13.554;2023-09-30T06:41:24;11.55;;;3.70;;
23322;SDS011;11833;52.554;13.554;2023-09-30T06:43:50;9.45;;;2.75;;
23322;SDS011;11833;52.554;13.554;2023-09-30T06:46:17;8.25;;;2.50;;
23322;SDS011;11833;52.554;13.554;2023-09-30T06:48:42;22.38;;;4.25;;
23322;SDS011;11833;52.554;13.554;2023-09-30T06:51:12;12.40;;;2.58;;
23322;SDS011;11833;52.554;13.554;2023-09-30T06:53:42;7.90;;;2.15;;
23322;SDS011;11833;52.554;13.554;2023-09-30T06:56:08;9.48;;;3.03;;
23322;SDS011;11833;52.554;13.554;2023-09-30T06:58:34;8.68;;;2.45;;
23322;SDS011;11833;52.554;13.554;2023-09-30T07:01:00;16.38;;;2.50;;
23322;SDS011;11833;52.554;13.554;2023-09-30T07:03:26;10.65;;;2.40;;
23322;SDS011;11833;52.554;13.554;2023-09-30T07:05:52;11.25;;;2.60;;
23322;SDS011;11833;52.554;13.554;2023-09-30T07:08:19;6.65;;;2.63;;
23322;SDS011;11833;52.554;13.554;2023-09-30T07:10:48;10.85;;;3.05;;
23322;SDS011;11833;52.554;13.554;2023-09-30T07:13:17;9.77;;;3.72;;
23322;SDS011;11833;52.554;13.554;2023-09-30T07:15:43;10.73;;;2.47;;
23322;SDS011;11833;52.554;13.554;2023-09-30T07:18:09;9.27;;;2.92;;
23322;SDS011;11833;52.554;13.554;2023-09-30T07:20:36;11.35;;;2.70;;
23322;SDS011;11833;52.554;13.554;2023-09-30T07:23:02;7.57;;;1.88;;
23322;SDS011;11833;52.554;13.554;2023-09-30T07:25:28;12.05;;;2.95;;
23322;SDS011;11833;52.554;13.554;2023-09-30T07:27:57;7.55;;;2.10;;
23322;SDS011;11833;52.554;13.554;2023-09-30T07:30:23;7.53;;;2.15;;
23322;SDS011;11833;52.554;13.554;2023-09-30T07:32:50;10.20;;;2.67;;
23322;SDS011;11833;52.554;13.554;2023-09-30T07:35:15;9.38;;;1.95;;
23322;SDS011;11833;52.554;13.554;2023-09-30T07:37:42;7.82;;;2.60;;
23322;SDS011;11833;52.554;13.554;2023-09-30T07:40:08;6.70;;;2.47;;
23322;SDS011;11833;52.554;13.554;2023-09-30T07:42:36;9.02;;;2.88;;
23322;SDS011;11833;52.554;13.554;2023-09-30T07:45:02;11.32;;;2.58;;
23322;SDS011;11833;52.554;13.554;2023-09-30T07:47:29;12.18;;;2.88;;
23322;SDS011;11833;52.554;13.554;2023-09-30T07:49:56;12.10;;;2.38;;
23322;SDS011;11833;52.554;13.554;2023-09-30T07:52:22;7.97;;;2.15;;
23322;SDS011;11833;52.554;13.554;2023-09-30T07:54:48;8.50;;;2.83;;
23322;SDS011;11833;52.554;13.554;2023-09-30T07:57:13;7.15;;;1.92;;
23322;SDS011;11833;52.554;13.554;2023-09-30T07:59:39;8.73;;;1.90;;
23322;SDS011;11833;52.554;13.554;2023-09-30T08:02:05;10.10;;;2.30;;
23322;SDS011;11833;52.554;13.554;2023-09-30T08:04:32;12.57;;;3.05;;
23322;SDS011;11833;52.554;13.554;2023-09-30T08:06:57;9.93;;;3.05;;
23322;SDS011;11833;52.554;13.554;2023-09-30T08:09:23;6.57;;;2.58;;
23322;SDS011;11833;52.554;13.554;2023-09-30T08:11:49;6.78;;;2.08;;
23322;SDS011;11833;52.554;13.554;2023-09-30T08:14:18;11.52;;;2.47;;
23322;SDS011;11833;52.554;13.554;2023-09-30T08:16:44;14.65;;;2.75;;
23322;SDS011;11833;52.554;13.554;2023-09-30T08:19:10;10.25;;;1.90;;
23322;SDS011;11833;52.554;13.554;2023-09-30T08:21:36;7.45;;;1.98;;
23322;SDS011;11833;52.554;13.554;2023-09-30T08:24:02;7.40;;;2.03;;
23322;SDS011;11833;52.554;13.554;2023-09-30T08:26:28;7.13;;;2.30;;
23322;SDS011;11833;52.554;13.554;2023-09-30T08:28:54;9.82;;;2.17;;
23322;SDS011;11833;52.554;13.554;2023-09-30T08:31:20;6.53;;;1.77;;
23322;SDS011;11833;52.554;13.554;2023-09-30T08:33:46;9.43;;;4.13;;
23322;SDS011;11833;52.554;13.554;2023-09-30T08:36:12;8.93;;;2.42;;
23322;SDS011;11833;52.554;13.554;2023-09-30T08:38:39;8.30;;;2.40;;
23322;SDS011;11833;52.554;13.554;2023-09-30T08:41:05;12.13;;;2.65;;
23322;SDS011;11833;52.554;13.554;2023-09-30T08:43:36;11.82;;;2.60;;
23322;SDS011;11833;52.554;13.554;2023-09-30T08:46:04;10.43;;;2.92;;
23322;SDS011;11833;52.554;13.554;2023-09-30T08:48:34;11.27;;;2.30;;
23322;SDS011;11833;52.554;13.554;2023-09-30T08:51:00;8.27;;;2.95;;
23322;SDS011;11833;52.554;13.554;2023-09-30T08:53:28;7.60;;;2.38;;
23322;SDS011;11833;52.554;13.554;2023-09-30T08:55:56;10.10;;;2.80;;
23322;SDS011;11833;52.554;13.554;2023-09-30T08:58:27;10.32;;;2.55;;
23322;SDS011;11833;52.554;13.554;2023-09-30T09:00:54;7.18;;;1.92;;
23322;SDS011;11833;52.554;13.554;2023-09-30T09:03:21;8.48;;;2.80;;
23322;SDS011;11833;52.554;13.554;2023-09-30T09:05:56;9.35;;;3.35;;
23322;SDS011;11833;52.554;13.554;2023-09-30T09:08:22;6.60;;;1.70;;
23322;SDS011;11833;52.554;13.554;2023-09-30T09:10:58;8.50;;;2.22;;
23322;SDS011;11833;52.554;13.554;2023-09-30T09:13:26;14.10;;;2.28;;
23322;SDS011;11833;52.554;13.554;2023-09-30T09:16:06;12.75;;;2.22;;
23322;SDS011;11833;52.554;13.554;2023-09-30T09:18:33;6.72;;;1.67;;
23322;SDS011;11833;52.554;13.554;2023-09-30T09:21:07;6.88;;;1.73;;
23322;SDS011;11833;52.554;13.554;2023-09-30T09:23:43;12.90;;;2.58;;
23322;SDS011;11833;52.554;13.554;2023-09-30T09:26:31;10.30;;;3.03;;
23322;SDS011;11833;52.554;13.554;2023-09-30T09:29:03;14.75;;;2.53;;
23322;SDS011;11833;52.554;13.554;2023-09-30T09:31:31;8.90;;;2.08;;
23322;SDS011;11833;52.554;13.554;2023-09-30T09:34:00;12.63;;;2.60;;
23322;SDS011;11833;52.554;13.554;2023-09-30T09:36:38;9.80;;;2.22;;
23322;SDS011;11833;52.554;13.554;2023-09-30T09:39:06;9.45;;;1.95;;
23322;SDS011;11833;52.554;13.554;2023-09-30T09:41:32;9.40;;;2.45;;
23322;SDS011;11833;52.554;13.554;2023-09-30T09:44:14;9.32;;;2.05;;
23322;SDS011;11833;52.554;13.554;2023-09-30T09:46:42;9.88;;;2.25;;
23322;SDS011;11833;52.554;13.554;2023-09-30T09:49:10;9.90;;;3.13;;
23322;SDS011;11833;52.554;13.554;2023-09-30T09:51:36;7.35;;;2.00;;
23322;SDS011;11833;52.554;13.554;2023-09-30T09:54:03;8.75;;;2.05;;
23322;SDS011;11833;52.554;13.554;2023-09-30T09:56:33;8.70;;;1.98;;
23322;SDS011;11833;52.554;13.554;2023-09-30T09:59:00;8.48;;;2.38;;
23322;SDS011;11833;52.554;13.554;2023-09-30T10:01:29;8.57;;;1.88;;
23322;SDS011;11833;52.554;13.554;2023-09-30T10:03:56;7.72;;;1.80;;
23322;SDS011;11833;52.554;13.554;2023-09-30T10:06:22;7.88;;;2.25;;
23322;SDS011;11833;52.554;13.554;2023-09-30T10:08:49;8.73;;;1.98;;
23322;SDS011;11833;52.554;13.554;2023-09-30T10:11:17;9.98;;;1.85;;
23322;SDS011;11833;52.554;13.554;2023-09-30T10:19:12;12.48;;;1.90;;
23322;SDS011;11833;52.554;13.554;2023-09-30T10:24:56;7.88;;;2.38;;
23322;SDS011;11833;52.554;13.554;2023-09-30T10:29:54;7.32;;;1.70;;
23322;SDS011;11833;52.554;13.554;2023-09-30T10:35:42;4.60;;;1.55;;
23322;SDS011;11833;52.554;13.554;2023-09-30T10:40:52;7.57;;;1.42;;
23322;SDS011;11833;52.554;13.554;2023-09-30T10:43:32;10.20;;;1.40;;
23322;SDS011;11833;52.554;13.554;2023-09-30T10:46:02;6.93;;;1.73;;
23322;SDS011;11833;52.554;13.554;2023-09-30T10:48:32;7.10;;;1.40;;
23322;SDS011;11833;52.554;13.554;2023-09-30T10:53:49;6.20;;;1.45;;
23322;SDS011;11833;52.554;13.554;2023-09-30T10:56:28;5.45;;;1.60;;
23322;SDS011;11833;52.554;13.554;2023-09-30T10:59:00;6.32;;;1.90;;
23322;SDS011;11833;52.554;13.554;2023-09-30T11:01:31;4.38;;;1.67;;
23322;SDS011;11833;52.554;13.554;2023-09-30T11:04:02;5.88;;;1.55;;
23322;SDS011;11833;52.554;13.554;2023-09-30T11:06:30;6.15;;;1.88;;
23322;SDS011;11833;52.554;13.554;2023-09-30T11:08:57;9.45;;;2.00;;
23322;SDS011;11833;52.554;13.554;2023-09-30T11:11:34;4.72;;;2.20;;
23322;SDS011;11833;52.554;13.554;2023-09-30T11:17:02;6.55;;;1.50;;
23322;SDS011;11833;52.554;13.554;2023-09-30T11:20:04;6.78;;;2.25;;
23322;SDS011;11833;52.554;13.554;2023-09-30T11:22:23;8.10;;;1.65;;
23322;SDS011;11833;52.554;13.554;2023-09-30T11:24:49;4.45;;;1.45;;
23322;SDS011;11833;52.554;13.554;2023-09-30T11:27:24;6.07;;;1.45;;
23322;SDS011;11833;52.554;13.554;2023-09-30T11:29:50;6.35;;;1.10;;
23322;SDS011;11833;52.554;13.554;2023-09-30T11:32:25;5.32;;;1.60;;
23322;SDS011;11833;52.554;13.554;2023-09-30T11:34:52;5.88;;;1.60;;
23322;SDS011;11833;52.554;13.554;2023-09-30T11:37:18;7.80;;;1.95;;
23322;SDS011;11833;52.554;13.554;2023-09-30T11:39:44;7.10;;;1.98;;
23322;SDS011;11833;52.554;13.554;2023-09-30T11:42:16;6.63;;;1.90;;
23322;SDS011;11833;52.554;13.554;2023-09-30T11:44:44;8.55;;;1.75;;
23322;SDS011;11833;52.554;13.554;2023-09-30T11:47:15;10.40;;;2.20;;
23322;SDS011;11833;52.554;13.554;2023-09-30T11:49:42;7.97;;;1.85;;
23322;SDS011;11833;52.554;13.554;2023-09-30T11:52:13;3.90;;;0.95;;
23322;SDS011;11833;52.554;13.554;2023-09-30T11:54:42;5.80;;;1.75;;
23322;SDS011;11833;52.554;13.554;2023-09-30T11:57:13;4.65;;;1.30;;
23322;SDS011;11833;52.554;13.554;2023-09-30T11:59:41;8.57;;;1.50;;
23322;SDS011;11833;52.554;13.554;2023-09-30T12:02:08;4.32;;;1.00;;
23322;SDS011;11833;52.554;13.554;2023-09-30T12:04:38;7.63;;;1.30;;
23322;SDS011;11833;52.554;13.554;2023-09-30T12:07:04;9.85;;;0.93;;
23322;SDS011;11833;52.554;13.554;2023-09-30T12:09:32;4.70;;;1.30;;
23322;SDS011;11833;52.554;13.554;2023-09-30T12:12:00;4.88;;;1.40;;
23322;SDS011;11833;52.554;13.554;2023-09-30T12:14:27;10.00;;;1.50;;
23322;SDS011;11833;52.554;13.554;2023-09-30T12:16:55;6.18;;;1.70;;
23322;SDS011;11833;52.554;13.554;2023-09-30T12:19:21;5.03;;;1.27;;
23322;SDS011;11833;52.554;13.554;2023-09-30T12:21:47;11.65;;;1.40;;
23322;SDS011;11833;52.554;13.554;2023-09-30T12:24:16;4.03;;;1.23;;
23322;SDS011;11833;52.554;13.554;2023-09-30T12:26:47;5.70;;;1.30;;
23322;SDS011;11833;52.554;13.554;2023-09-30T12:29:14;2.72;;;1.00;;
23322;SDS011;11833;52.554;13.554;2023-09-30T12:31:44;6.55;;;1.83;;
23322;SDS011;11833;52.554;13.554;2023-09-30T12:34:11;4.60;;;1.40;;
23322;SDS011;11833;52.554;13.554;2023-09-30T12:36:40;4.95;;;1.27;;
23322;SDS011;11833;52.554;13.554;2023-09-30T12:39:06;5.90;;;1.65;;
23322;SDS011;11833;52.554;13.554;2023-09-30T12:41:45;6.20;;;1.35;;
23322;SDS011;11833;52.554;13.554;2023-09-30T12:44:10;2.42;;;1.15;;
23322;SDS011;11833;52.554;13.554;2023-09-30T12:46:36;4.40;;;1.23;;
23322;SDS011;11833;52.554;13.554;2023-09-30T12:49:04;4.88;;;1.23;;
23322;SDS011;11833;52.554;13.554;2023-09-30T12:51:33;6.18;;;1.45;;
23322;SDS011;11833;52.554;13.554;2023-09-30T12:54:00;4.55;;;1.27;;
23322;SDS011;11833;52.554;13.554;2023-09-30T12:56:26;6.78;;;0.93;;
23322;SDS011;11833;52.554;13.554;2023-09-30T12:58:54;4.55;;;1.10;;
23322;SDS011;11833;52.554;13.554;2023-09-30T13:01:21;5.80;;;1.30;;
23322;SDS011;11833;52.554;13.554;2023-09-30T13:03:47;6.07;;;1.23;;
23322;SDS011;11833;52.554;13.554;2023-09-30T13:06:13;5.57;;;1.38;;
23322;SDS011;11833;52.554;13.554;2023-09-30T13:08:42;4.82;;;1.17;;
23322;SDS011;11833;52.554;13.554;2023-09-30T13:11:08;6.72;;;1.45;;
23322;SDS011;11833;52.554;13.554;2023-09-30T13:13:35;4.35;;;1.23;;
23322;SDS011;11833;52.554;13.554;2023-09-30T13:16:01;5.75;;;1.40;;
23322;SDS011;11833;52.554;13.554;2023-09-30T13:18:30;6.82;;;1.33;;
23322;SDS011;11833;52.554;13.554;2023-09-30T13:20:57;5.85;;;1.30;;
23322;SDS011;11833;52.554;13.554;2023-09-30T13:23:23;4.78;;;1.48;;
23322;SDS011;11833;52.554;13.554;2023-09-30T13:25:49;3.08;;;0.90;;
23322;SDS011;11833;52.554;13.554;2023-09-30T13:28:15;3.03;;;1.10;;
23322;SDS011;11833;52.554;13.554;2023-09-30T13:30:41;3.38;;;1.02;;
23322;SDS011;11833;52.554;13.554;2023-09-30T13:33:07;4.28;;;0.98;;
23322;SDS011;11833;52.554;13.554;2023-09-30T13:35:33;4.80;;;1.25;;
23322;SDS011;11833;52.554;13.554;2023-09-30T13:38:01;3.33;;;0.80;;
23322;SDS011;11833;52.554;13.554;2023-09-30T13:40:28;7.75;;;1.60;;
23322;SDS011;11833;52.554;13.554;2023-09-30T13:42:54;4.07;;;1.35;;
23322;SDS011;11833;52.554;13.554;2023-09-30T13:45:21;5.28;;;1.45;;
23322;SDS011;11833;52.554;13.554;2023-09-30T13:47:46;6.85;;;1.30;;
23322;SDS011;11833;52.554;13.554;2023-09-30T13:50:12;4.80;;;1.38;;
23322;SDS011;11833;52.554;13.554;2023-09-30T13:52:38;4.72;;;1.13;;
23322;SDS011;11833;52.554;13.554;2023-09-30T13:55:04;9.23;;;1.63;;
23322;SDS011;11833;52.554;13.554;2023-09-30T13:57:30;6.15;;;1.52;;
23322;SDS011;11833;52.554;13.554;2023-09-30T13:59:56;5.05;;;1.33;;
23322;SDS011;11833;52.554;13.554;2023-09-30T14:02:22;3.42;;;1.20;;
23322;SDS011;11833;52.554;13.554;2023-09-30T14:04:48;5.50;;;0.82;;
23322;SDS011;11833;52.554;13.554;2023-09-30T14:07:14;2.95;;;0.93;;
23322;SDS011;11833;52.554;13.554;2023-09-30T14:09:43;2.95;;;0.75;;
23322;SDS011;11833;52.554;13.554;2023-09-30T14:12:09;2.97;;;1.10;;
23322;SDS011;11833;52.554;13.554;2023-09-30T14:14:35;5.88;;;1.13;;
23322;SDS011;11833;52.554;13.554;2023-09-30T14:17:01;1.23;;;0.77;;
23322;SDS011;11833;52.554;13.554;2023-09-30T14:19:35;5.85;;;1.00;;
23322;SDS011;11833;52.554;13.554;2023-09-30T14:22:03;4.60;;;0.70;;
23322;SDS011;11833;52.554;13.554;2023-09-30T14:24:30;4.50;;;0.80;;
23322;SDS011;11833;52.554;13.554;2023-09-30T14:26:58;3.85;;;0.70;;
23322;SDS011;11833;52.554;13.554;2023-09-30T14:29:24;4.40;;;1.23;;
23322;SDS011;11833;52.554;13.554;2023-09-30T14:31:50;4.13;;;1.05;;
23322;SDS011;11833;52.554;13.554;2023-09-30T14:34:16;2.97;;;1.33;;
23322;SDS011;11833;52.554;13.554;2023-09-30T14:36:43;3.42;;;1.10;;
23322;SDS011;11833;52.554;13.554;2023-09-30T14:39:09;2.63;;;0.60;;
23322;SDS011;11833;52.554;13.554;2023-09-30T14:41:35;5.00;;;0.98;;
23322;SDS011;11833;52.554;13.554;2023-09-30T14:44:01;4.50;;;0.90;;
23322;SDS011;11833;52.554;13.554;2023-09-30T14:46:32;5.30;;;0.90;;
23322;SDS011;11833;52.554;13.554;2023-09-30T14:48:59;3.10;;;0.80;;
23322;SDS011;11833;52.554;13.554;2023-09-30T14:51:25;4.90;;;1.00;;
23322;SDS011;11833;52.554;13.554;2023-09-30T14:53:50;7.57;;;1.08;;
23322;SDS011;11833;52.554;13.554;2023-09-30T14:56:17;6.65;;;0.82;;
23322;SDS011;11833;52.554;13.554;2023-09-30T14:58:44;6.28;;;1.13;;